sensor_id;sensor_type;location;lat;lon;timestamp;temperature;humidity
11304;DHT22;5707;49.588;12.148;2024-03-08T00:00:40;-1.50;99.90
11304;DHT22;5707;49.588;12.148;2024-03-08T00:03:08;-1.40;99.90
11304;DHT22;5707;49.588;12.148;2024-03-08T00:05:36;-1.40;99.90
11304;DHT22;5707;49.588;12.148;2024-03-08T00:08:01;-1.40;99.90
11304;DHT22;5707;49.588;12.148;2024-03-08T00:10:27;-1.40;99.90
11304;DHT22;5707;49.588;12.148;2024-03-08T00:12:54;-1.40;99.90
11304;DHT22;5707;49.588;12.148;2024-03-08T00:15:20;-1.40;99.90
11304;DHT22;5707;49.588;12.148;2024-03-08T00:17:48;-1.50;99.90
11304;DHT22;5707;49.588;12.148;2024-03-08T00:20:14;-1.60;99.90
11304;DHT22;5707;49.588;12.148;2024-03-08T00:22:39;-1.60;99.90
11304;DHT22;5707;49.588;12.148;2024-03-08T00:25:07;-1.60;99.90
11304;DHT22;5707;49.588;12.148;2024-03-08T00:27:36;-1.50;99.90
11304;DHT22;5707;49.588;12.148;2024-03-08T00:30:02;-1.30;99.90
11304;DHT22;5707;49.588;12.148;2024-03-08T00:32:28;-1.30;99.90
11304;DHT22;5707;49.588;12.148;2024-03-08T00:34:54;-1.30;99.90
11304;DHT22;5707;49.588;12.148;2024-03-08T00:37:23;-1.30;99.90
11304;DHT22;5707;49.588;12.148;2024-03-08T00:39:49;-1.20;99.90
11304;DHT22;5707;49.588;12.148;2024-03-08T00:42:16;-1.20;99.90
11304;DHT22;5707;49.588;12.148;2024-03-08T00:44:41;-1.20;99.90
11304;DHT22;5707;49.588;12.148;2024-03-08T00:47:07;-1.20;99.90
11304;DHT22;5707;49.588;12.148;2024-03-08T00:49:32;-1.20;99.90
11304;DHT22;5707;49.588;12.148;2024-03-08T00:51:58;-1.10;99.90
11304;DHT22;5707;49.588;12.148;2024-03-08T00:54:23;-1.10;99.90
11304;DHT22;5707;49.588;12.148;2024-03-08T00:56:49;-1.20;99.90
11304;DHT22;5707;49.588;12.148;2024-03-08T00:59:15;-1.30;99.90
11304;DHT22;5707;49.588;12.148;2024-03-08T01:01:41;-1.40;99.90
11304;DHT22;5707;49.588;12.148;2024-03-08T01:04:06;-1.40;99.90
11304;DHT22;5707;49.588;12.148;2024-03-08T01:06:33;-1.50;99.90
11304;DHT22;5707;49.588;12.148;2024-03-08T01:08:59;-1.40;99.90
11304;DHT22;5707;49.588;12.148;2024-03-08T01:11:24;-1.30;99.90
11304;DHT22;5707;49.588;12.148;2024-03-08T01:13:50;-1.20;99.90
11304;DHT22;5707;49.588;12.148;2024-03-08T01:16:16;-1.20;99.90
11304;DHT22;5707;49.588;12.148;2024-03-08T01:18:43;-1.20;99.90
11304;DHT22;5707;49.588;12.148;2024-03-08T01:21:08;-1.30;99.90
11304;DHT22;5707;49.588;12.148;2024-03-08T01:23:34;-1.30;99.90
11304;DHT22;5707;49.588;12.148;2024-03-08T01:26:00;-1.30;99.90
11304;DHT22;5707;49.588;12.148;2024-03-08T01:28:27;-1.30;99.90
11304;DHT22;5707;49.588;12.148;2024-03-08T01:30:53;-1.30;99.90
11304;DHT22;5707;49.588;12.148;2024-03-08T01:33:22;-1.40;99.90
11304;DHT22;5707;49.588;12.148;2024-03-08T01:35:48;-1.40;99.90
11304;DHT22;5707;49.588;12.148;2024-03-08T01:38:13;-1.50;99.90
11304;DHT22;5707;49.588;12.148;2024-03-08T01:40:39;-1.70;99.90
11304;DHT22;5707;49.588;12.148;2024-03-08T01:43:25;-1.80;99.90
11304;DHT22;5707;49.588;12.148;2024-03-08T01:45:53;-1.80;99.90
11304;DHT22;5707;49.588;12.148;2024-03-08T01:48:19;-1.80;99.90
11304;DHT22;5707;49.588;12.148;2024-03-08T01:50:47;-1.80;99.90
11304;DHT22;5707;49.588;12.148;2024-03-08T01:53:13;-1.90;99.90
11304;DHT22;5707;49.588;12.148;2024-03-08T01:55:40;-1.90;99.90
11304;DHT22;5707;49.588;12.148;2024-03-08T01:58:09;-1.90;99.90
11304;DHT22;5707;49.588;12.148;2024-03-08T02:00:35;-1.80;99.90
11304;DHT22;5707;49.588;12.148;2024-03-08T02:03:02;-1.90;99.90
11304;DHT22;5707;49.588;12.148;2024-03-08T02:05:28;-2.10;99.90
11304;DHT22;5707;49.588;12.148;2024-03-08T02:07:54;-2.20;99.90
11304;DHT22;5707;49.588;12.148;2024-03-08T02:10:19;-2.20;99.90
11304;DHT22;5707;49.588;12.148;2024-03-08T02:12:46;-2.00;99.90
11304;DHT22;5707;49.588;12.148;2024-03-08T02:15:12;-2.00;99.90
11304;DHT22;5707;49.588;12.148;2024-03-08T02:17:38;-2.00;99.90
11304;DHT22;5707;49.588;12.148;2024-03-08T02:20:04;-2.20;99.90
11304;DHT22;5707;49.588;12.148;2024-03-08T02:22:30;-2.30;99.90
11304;DHT22;5707;49.588;12.148;2024-03-08T02:24:58;-2.30;99.90
11304;DHT22;5707;49.588;12.148;2024-03-08T02:27:24;-2.40;99.90
11304;DHT22;5707;49.588;12.148;2024-03-08T02:29:55;-2.30;99.90
11304;DHT22;5707;49.588;12.148;2024-03-08T02:32:24;-2.30;99.90
11304;DHT22;5707;49.588;12.148;2024-03-08T02:34:50;-2.40;99.90
11304;DHT22;5707;49.588;12.148;2024-03-08T02:37:16;-2.60;99.90
11304;DHT22;5707;49.588;12.148;2024-03-08T02:39:42;-2.60;99.90
11304;DHT22;5707;49.588;12.148;2024-03-08T02:42:08;-2.60;99.90
11304;DHT22;5707;49.588;12.148;2024-03-08T02:44:34;-2.70;99.90
11304;DHT22;5707;49.588;12.148;2024-03-08T02:46:59;-2.80;99.90
11304;DHT22;5707;49.588;12.148;2024-03-08T02:49:26;-2.80;99.90
11304;DHT22;5707;49.588;12.148;2024-03-08T02:51:52;-2.90;99.90
11304;DHT22;5707;49.588;12.148;2024-03-08T02:54:18;-3.00;99.90
11304;DHT22;5707;49.588;12.148;2024-03-08T02:56:44;-3.10;99.90
11304;DHT22;5707;49.588;12.148;2024-03-08T02:59:12;-3.20;99.90
11304;DHT22;5707;49.588;12.148;2024-03-08T03:01:38;-3.30;99.90
11304;DHT22;5707;49.588;12.148;2024-03-08T03:04:04;-3.40;99.90
11304;DHT22;5707;49.588;12.148;2024-03-08T03:06:30;-3.40;99.90
11304;DHT22;5707;49.588;12.148;2024-03-08T03:08:57;-3.40;99.90
11304;DHT22;5707;49.588;12.148;2024-03-08T03:11:23;-3.60;99.90
11304;DHT22;5707;49.588;12.148;2024-03-08T03:13:49;-3.80;99.90
11304;DHT22;5707;49.588;12.148;2024-03-08T03:16:20;-3.80;99.90
11304;DHT22;5707;49.588;12.148;2024-03-08T03:18:46;-3.80;99.90
11304;DHT22;5707;49.588;12.148;2024-03-08T03:21:12;-3.70;99.90
11304;DHT22;5707;49.588;12.148;2024-03-08T03:23:39;-3.70;99.90
11304;DHT22;5707;49.588;12.148;2024-03-08T03:26:08;-3.80;99.90
11304;DHT22;5707;49.588;12.148;2024-03-08T03:28:36;-3.70;99.90
11304;DHT22;5707;49.588;12.148;2024-03-08T03:31:07;-3.60;99.90
11304;DHT22;5707;49.588;12.148;2024-03-08T03:33:33;-3.70;99.90
11304;DHT22;5707;49.588;12.148;2024-03-08T03:36:02;-3.90;99.90
11304;DHT22;5707;49.588;12.148;2024-03-08T03:38:28;-4.10;99.90
11304;DHT22;5707;49.588;12.148;2024-03-08T03:40:53;-3.90;99.90
11304;DHT22;5707;49.588;12.148;2024-03-08T03:43:23;-3.60;99.90
11304;DHT22;5707;49.588;12.148;2024-03-08T03:45:48;-3.40;99.90
11304;DHT22;5707;49.588;12.148;2024-03-08T03:48:14;-3.20;99.90
11304;DHT22;5707;49.588;12.148;2024-03-08T03:50:39;-2.90;99.90
11304;DHT22;5707;49.588;12.148;2024-03-08T03:53:07;-2.80;99.90
11304;DHT22;5707;49.588;12.148;2024-03-08T03:55:33;-2.70;99.90
11304;DHT22;5707;49.588;12.148;2024-03-08T03:57:58;-2.30;99.90
11304;DHT22;5707;49.588;12.148;2024-03-08T04:00:26;-2.00;99.90
11304;DHT22;5707;49.588;12.148;2024-03-08T04:02:52;-1.80;99.90
11304;DHT22;5707;49.588;12.148;2024-03-08T04:05:18;-1.70;99.90
11304;DHT22;5707;49.588;12.148;2024-03-08T04:07:43;-1.50;99.90
11304;DHT22;5707;49.588;12.148;2024-03-08T04:10:11;-1.30;99.90
11304;DHT22;5707;49.588;12.148;2024-03-08T04:12:37;-1.20;99.90
11304;DHT22;5707;49.588;12.148;2024-03-08T04:15:03;-1.20;99.90
11304;DHT22;5707;49.588;12.148;2024-03-08T04:17:30;-1.10;99.90
11304;DHT22;5707;49.588;12.148;2024-03-08T04:19:56;-1.00;99.90
11304;DHT22;5707;49.588;12.148;2024-03-08T04:22:22;-1.00;99.90
11304;DHT22;5707;49.588;12.148;2024-03-08T04:24:48;-0.80;99.90
11304;DHT22;5707;49.588;12.148;2024-03-08T04:27:14;-0.80;99.90
11304;DHT22;5707;49.588;12.148;2024-03-08T04:29:39;-0.80;99.90
11304;DHT22;5707;49.588;12.148;2024-03-08T04:32:06;-0.70;99.90
11304;DHT22;5707;49.588;12.148;2024-03-08T04:34:32;-0.70;99.90
11304;DHT22;5707;49.588;12.148;2024-03-08T04:36:59;-0.60;99.90
11304;DHT22;5707;49.588;12.148;2024-03-08T04:39:25;-0.60;99.90
11304;DHT22;5707;49.588;12.148;2024-03-08T04:41:54;-0.50;99.90
11304;DHT22;5707;49.588;12.148;2024-03-08T04:44:20;-0.50;99.90
11304;DHT22;5707;49.588;12.148;2024-03-08T04:46:45;-0.50;99.90
11304;DHT22;5707;49.588;12.148;2024-03-08T04:49:12;-0.40;99.90
11304;DHT22;5707;49.588;12.148;2024-03-08T04:51:38;-0.30;99.90
11304;DHT22;5707;49.588;12.148;2024-03-08T04:54:04;-0.30;99.90
11304;DHT22;5707;49.588;12.148;2024-03-08T04:56:32;-0.30;99.90
11304;DHT22;5707;49.588;12.148;2024-03-08T04:58:59;-0.30;99.90
11304;DHT22;5707;49.588;12.148;2024-03-08T05:01:24;-0.20;99.90
11304;DHT22;5707;49.588;12.148;2024-03-08T05:03:50;-0.20;99.90
11304;DHT22;5707;49.588;12.148;2024-03-08T05:06:16;-0.20;99.90
11304;DHT22;5707;49.588;12.148;2024-03-08T05:08:42;-0.20;99.90
11304;DHT22;5707;49.588;12.148;2024-03-08T05:11:07;-0.20;99.90
11304;DHT22;5707;49.588;12.148;2024-03-08T05:13:33;-0.20;99.90
11304;DHT22;5707;49.588;12.148;2024-03-08T05:16:00;-0.20;99.90
11304;DHT22;5707;49.588;12.148;2024-03-08T05:18:25;-0.10;99.90
11304;DHT22;5707;49.588;12.148;2024-03-08T05:20:53;-0.10;99.90
11304;DHT22;5707;49.588;12.148;2024-03-08T05:23:19;-0.10;99.90
11304;DHT22;5707;49.588;12.148;2024-03-08T05:25:45;-0.20;99.90
11304;DHT22;5707;49.588;12.148;2024-03-08T05:28:12;0.00;99.90
11304;DHT22;5707;49.588;12.148;2024-03-08T05:30:38;0.00;99.90
11304;DHT22;5707;49.588;12.148;2024-03-08T05:33:04;-0.10;99.90
11304;DHT22;5707;49.588;12.148;2024-03-08T05:35:30;-0.30;99.90
11304;DHT22;5707;49.588;12.148;2024-03-08T05:37:55;-0.70;99.90
11304;DHT22;5707;49.588;12.148;2024-03-08T05:40:21;-1.00;99.90
11304;DHT22;5707;49.588;12.148;2024-03-08T05:42:47;-1.40;99.90
11304;DHT22;5707;49.588;12.148;2024-03-08T05:45:12;-1.80;99.90
11304;DHT22;5707;49.588;12.148;2024-03-08T05:47:39;-2.20;99.90
11304;DHT22;5707;49.588;12.148;2024-03-08T05:50:05;-2.40;99.90
11304;DHT22;5707;49.588;12.148;2024-03-08T05:52:33;-2.70;99.90
11304;DHT22;5707;49.588;12.148;2024-03-08T05:54:58;-2.80;99.90
11304;DHT22;5707;49.588;12.148;2024-03-08T05:57:24;-2.80;99.90
11304;DHT22;5707;49.588;12.148;2024-03-08T05:59:50;-2.80;99.90
11304;DHT22;5707;49.588;12.148;2024-03-08T06:02:15;-2.80;99.90
11304;DHT22;5707;49.588;12.148;2024-03-08T06:04:47;-2.80;99.90
11304;DHT22;5707;49.588;12.148;2024-03-08T06:07:13;-2.80;99.90
11304;DHT22;5707;49.588;12.148;2024-03-08T06:09:38;-2.50;99.90
11304;DHT22;5707;49.588;12.148;2024-03-08T06:12:05;-2.30;99.90
11304;DHT22;5707;49.588;12.148;2024-03-08T06:14:32;-2.30;99.90
11304;DHT22;5707;49.588;12.148;2024-03-08T06:16:57;-2.10;99.90
11304;DHT22;5707;49.588;12.148;2024-03-08T06:19:23;-2.10;99.90
11304;DHT22;5707;49.588;12.148;2024-03-08T06:21:48;-1.80;99.90
11304;DHT22;5707;49.588;12.148;2024-03-08T06:24:14;-1.70;99.90
11304;DHT22;5707;49.588;12.148;2024-03-08T06:26:40;-1.50;99.90
11304;DHT22;5707;49.588;12.148;2024-03-08T06:29:06;-1.40;99.90
11304;DHT22;5707;49.588;12.148;2024-03-08T06:31:35;-1.40;99.90
11304;DHT22;5707;49.588;12.148;2024-03-08T06:34:04;-1.20;99.90
11304;DHT22;5707;49.588;12.148;2024-03-08T06:36:32;-1.10;99.90
11304;DHT22;5707;49.588;12.148;2024-03-08T06:38:58;-0.80;99.90
11304;DHT22;5707;49.588;12.148;2024-03-08T06:41:24;-0.70;99.90
11304;DHT22;5707;49.588;12.148;2024-03-08T06:43:50;-0.70;99.90
11304;DHT22;5707;49.588;12.148;2024-03-08T06:46:17;-0.70;99.90
11304;DHT22;5707;49.588;12.148;2024-03-08T06:48:43;-0.60;99.90
11304;DHT22;5707;49.588;12.148;2024-03-08T06:51:11;-0.40;99.90
11304;DHT22;5707;49.588;12.148;2024-03-08T06:53:37;-0.40;99.90
11304;DHT22;5707;49.588;12.148;2024-03-08T06:56:04;-0.20;99.90
11304;DHT22;5707;49.588;12.148;2024-03-08T06:58:29;-0.10;99.90
11304;DHT22;5707;49.588;12.148;2024-03-08T07:00:55;0.00;99.90
11304;DHT22;5707;49.588;12.148;2024-03-08T07:03:23;0.00;99.90
11304;DHT22;5707;49.588;12.148;2024-03-08T07:05:49;0.10;99.90
11304;DHT22;5707;49.588;12.148;2024-03-08T07:08:15;0.20;99.90
11304;DHT22;5707;49.588;12.148;2024-03-08T07:10:41;0.20;99.90
11304;DHT22;5707;49.588;12.148;2024-03-08T07:13:07;0.30;99.90
11304;DHT22;5707;49.588;12.148;2024-03-08T07:15:33;0.40;99.90
11304;DHT22;5707;49.588;12.148;2024-03-08T07:17:59;0.40;99.90
11304;DHT22;5707;49.588;12.148;2024-03-08T07:20:25;0.50;99.90
11304;DHT22;5707;49.588;12.148;2024-03-08T07:22:51;0.50;99.90
11304;DHT22;5707;49.588;12.148;2024-03-08T07:25:17;0.60;99.90
11304;DHT22;5707;49.588;12.148;2024-03-08T07:27:53;0.60;99.90
11304;DHT22;5707;49.588;12.148;2024-03-08T07:30:20;0.70;99.90
11304;DHT22;5707;49.588;12.148;2024-03-08T07:33:05;0.70;99.90
11304;DHT22;5707;49.588;12.148;2024-03-08T07:35:32;0.80;99.90
11304;DHT22;5707;49.588;12.148;2024-03-08T07:37:58;0.90;99.90
11304;DHT22;5707;49.588;12.148;2024-03-08T07:40:25;0.90;99.90
11304;DHT22;5707;49.588;12.148;2024-03-08T07:42:51;0.90;99.90
11304;DHT22;5707;49.588;12.148;2024-03-08T07:45:17;1.00;99.90
11304;DHT22;5707;49.588;12.148;2024-03-08T07:47:43;1.10;99.90
11304;DHT22;5707;49.588;12.148;2024-03-08T07:50:08;1.20;99.90
11304;DHT22;5707;49.588;12.148;2024-03-08T07:52:35;1.20;99.90
11304;DHT22;5707;49.588;12.148;2024-03-08T07:55:04;1.20;99.90
11304;DHT22;5707;49.588;12.148;2024-03-08T07:57:31;1.30;99.90
11304;DHT22;5707;49.588;12.148;2024-03-08T07:59:57;1.40;99.90
11304;DHT22;5707;49.588;12.148;2024-03-08T08:02:22;1.50;99.90
11304;DHT22;5707;49.588;12.148;2024-03-08T08:04:48;1.60;99.90
11304;DHT22;5707;49.588;12.148;2024-03-08T08:07:14;1.70;99.90
11304;DHT22;5707;49.588;12.148;2024-03-08T08:09:40;1.80;99.90
11304;DHT22;5707;49.588;12.148;2024-03-08T08:12:08;2.00;99.90
11304;DHT22;5707;49.588;12.148;2024-03-08T08:14:37;2.10;99.90
11304;DHT22;5707;49.588;12.148;2024-03-08T08:17:03;2.20;99.90
11304;DHT22;5707;49.588;12.148;2024-03-08T08:19:29;2.40;99.90
11304;DHT22;5707;49.588;12.148;2024-03-08T08:21:55;2.50;99.90
11304;DHT22;5707;49.588;12.148;2024-03-08T08:24:21;2.50;99.90
11304;DHT22;5707;49.588;12.148;2024-03-08T08:26:47;2.60;99.90
11304;DHT22;5707;49.588;12.148;2024-03-08T08:29:13;2.60;99.90
11304;DHT22;5707;49.588;12.148;2024-03-08T08:31:39;2.70;99.90
11304;DHT22;5707;49.588;12.148;2024-03-08T08:34:04;2.70;99.90
11304;DHT22;5707;49.588;12.148;2024-03-08T08:36:30;2.80;99.90
11304;DHT22;5707;49.588;12.148;2024-03-08T08:38:56;2.90;99.90
11304;DHT22;5707;49.588;12.148;2024-03-08T08:41:23;3.00;99.90
11304;DHT22;5707;49.588;12.148;2024-03-08T08:43:49;3.10;99.90
11304;DHT22;5707;49.588;12.148;2024-03-08T08:46:18;3.20;99.90
11304;DHT22;5707;49.588;12.148;2024-03-08T08:48:44;3.30;99.90
11304;DHT22;5707;49.588;12.148;2024-03-08T08:51:11;3.40;99.90
11304;DHT22;5707;49.588;12.148;2024-03-08T08:53:41;3.40;99.90
11304;DHT22;5707;49.588;12.148;2024-03-08T08:56:09;3.50;99.90
11304;DHT22;5707;49.588;12.148;2024-03-08T08:58:34;3.60;99.90
11304;DHT22;5707;49.588;12.148;2024-03-08T09:01:00;3.60;99.90
11304;DHT22;5707;49.588;12.148;2024-03-08T09:03:27;3.60;99.90
11304;DHT22;5707;49.588;12.148;2024-03-08T09:05:53;3.70;99.90
11304;DHT22;5707;49.588;12.148;2024-03-08T09:08:19;3.80;99.90
11304;DHT22;5707;49.588;12.148;2024-03-08T09:10:45;3.90;99.90
11304;DHT22;5707;49.588;12.148;2024-03-08T09:13:12;3.90;99.90
11304;DHT22;5707;49.588;12.148;2024-03-08T09:15:38;4.00;99.90
11304;DHT22;5707;49.588;12.148;2024-03-08T09:18:06;4.10;99.90
11304;DHT22;5707;49.588;12.148;2024-03-08T09:20:31;4.10;99.90
11304;DHT22;5707;49.588;12.148;2024-03-08T09:22:57;4.00;99.90
11304;DHT22;5707;49.588;12.148;2024-03-08T09:25:23;3.90;99.90
11304;DHT22;5707;49.588;12.148;2024-03-08T09:27:48;3.80;99.90
11304;DHT22;5707;49.588;12.148;2024-03-08T09:30:15;3.90;99.90
11304;DHT22;5707;49.588;12.148;2024-03-08T09:32:41;4.00;99.90
11304;DHT22;5707;49.588;12.148;2024-03-08T09:35:09;4.00;99.90
11304;DHT22;5707;49.588;12.148;2024-03-08T09:37:35;4.10;99.90
11304;DHT22;5707;49.588;12.148;2024-03-08T09:40:00;4.20;99.90
11304;DHT22;5707;49.588;12.148;2024-03-08T09:42:30;4.20;99.90
11304;DHT22;5707;49.588;12.148;2024-03-08T09:44:57;4.30;99.90
11304;DHT22;5707;49.588;12.148;2024-03-08T09:47:28;4.40;99.90
11304;DHT22;5707;49.588;12.148;2024-03-08T09:49:59;4.50;99.90
11304;DHT22;5707;49.588;12.148;2024-03-08T09:52:24;4.60;99.90
11304;DHT22;5707;49.588;12.148;2024-03-08T09:54:50;4.70;99.90
11304;DHT22;5707;49.588;12.148;2024-03-08T09:57:16;4.70;99.90
11304;DHT22;5707;49.588;12.148;2024-03-08T09:59:41;4.70;99.90
11304;DHT22;5707;49.588;12.148;2024-03-08T10:02:14;4.80;99.90
11304;DHT22;5707;49.588;12.148;2024-03-08T10:04:40;4.80;99.90
11304;DHT22;5707;49.588;12.148;2024-03-08T10:07:10;4.80;99.90
11304;DHT22;5707;49.588;12.148;2024-03-08T10:09:38;4.90;99.90
11304;DHT22;5707;49.588;12.148;2024-03-08T10:12:04;4.90;99.90
11304;DHT22;5707;49.588;12.148;2024-03-08T10:14:31;4.90;99.90
11304;DHT22;5707;49.588;12.148;2024-03-08T10:16:57;4.90;99.90
11304;DHT22;5707;49.588;12.148;2024-03-08T10:19:27;4.90;99.90
11304;DHT22;5707;49.588;12.148;2024-03-08T10:21:53;5.00;99.90
11304;DHT22;5707;49.588;12.148;2024-03-08T10:24:19;5.00;99.90
11304;DHT22;5707;49.588;12.148;2024-03-08T10:26:45;5.00;99.90
11304;DHT22;5707;49.588;12.148;2024-03-08T10:29:11;4.90;99.90
11304;DHT22;5707;49.588;12.148;2024-03-08T10:31:43;5.00;99.90
11304;DHT22;5707;49.588;12.148;2024-03-08T10:34:09;5.00;99.90
11304;DHT22;5707;49.588;12.148;2024-03-08T10:36:36;5.10;99.90
11304;DHT22;5707;49.588;12.148;2024-03-08T10:39:24;5.20;99.90
11304;DHT22;5707;49.588;12.148;2024-03-08T10:41:57;5.30;99.90
11304;DHT22;5707;49.588;12.148;2024-03-08T10:47:02;5.40;99.90
11304;DHT22;5707;49.588;12.148;2024-03-08T10:49:38;5.50;99.90
11304;DHT22;5707;49.588;12.148;2024-03-08T10:52:04;5.40;99.90
11304;DHT22;5707;49.588;12.148;2024-03-08T10:54:31;5.50;99.90
11304;DHT22;5707;49.588;12.148;2024-03-08T10:56:59;5.60;99.90
11304;DHT22;5707;49.588;12.148;2024-03-08T10:59:25;5.60;99.90
11304;DHT22;5707;49.588;12.148;2024-03-08T11:01:53;5.70;99.90
11304;DHT22;5707;49.588;12.148;2024-03-08T11:04:18;5.80;99.90
11304;DHT22;5707;49.588;12.148;2024-03-08T11:06:48;5.80;99.90
11304;DHT22;5707;49.588;12.148;2024-03-08T11:09:31;6.00;99.90
11304;DHT22;5707;49.588;12.148;2024-03-08T11:12:25;6.00;99.90
11304;DHT22;5707;49.588;12.148;2024-03-08T11:14:53;6.10;99.90
11304;DHT22;5707;49.588;12.148;2024-03-08T11:19:55;6.10;98.80
11304;DHT22;5707;49.588;12.148;2024-03-08T11:22:33;6.20;98.80
11304;DHT22;5707;49.588;12.148;2024-03-08T11:25:03;6.30;96.40
11304;DHT22;5707;49.588;12.148;2024-03-08T11:27:33;6.30;96.00
11304;DHT22;5707;49.588;12.148;2024-03-08T11:30:01;6.40;96.10
11304;DHT22;5707;49.588;12.148;2024-03-08T11:32:35;6.30;96.40
11304;DHT22;5707;49.588;12.148;2024-03-08T11:35:05;6.50;96.10
11304;DHT22;5707;49.588;12.148;2024-03-08T11:37:34;6.50;95.10
11304;DHT22;5707;49.588;12.148;2024-03-08T11:40:11;6.50;94.60
11304;DHT22;5707;49.588;12.148;2024-03-08T11:42:39;6.50;94.10
11304;DHT22;5707;49.588;12.148;2024-03-08T11:45:09;6.50;94.40
11304;DHT22;5707;49.588;12.148;2024-03-08T11:47:36;6.50;95.70
11304;DHT22;5707;49.588;12.148;2024-03-08T11:50:06;6.70;94.10
11304;DHT22;5707;49.588;12.148;2024-03-08T11:52:36;6.80;94.30
11304;DHT22;5707;49.588;12.148;2024-03-08T11:55:02;6.80;93.60
11304;DHT22;5707;49.588;12.148;2024-03-08T11:57:28;6.90;94.50
11304;DHT22;5707;49.588;12.148;2024-03-08T11:59:55;7.00;93.10
11304;DHT22;5707;49.588;12.148;2024-03-08T12:02:31;7.00;92.30
11304;DHT22;5707;49.588;12.148;2024-03-08T12:04:58;7.00;92.60
11304;DHT22;5707;49.588;12.148;2024-03-08T12:07:25;7.10;92.50
11304;DHT22;5707;49.588;12.148;2024-03-08T12:10:20;7.10;92.30
11304;DHT22;5707;49.588;12.148;2024-03-08T12:12:51;7.10;92.20
11304;DHT22;5707;49.588;12.148;2024-03-08T12:15:18;7.10;91.50
11304;DHT22;5707;49.588;12.148;2024-03-08T12:17:45;7.20;91.40
11304;DHT22;5707;49.588;12.148;2024-03-08T12:20:20;7.20;92.50
11304;DHT22;5707;49.588;12.148;2024-03-08T12:22:54;7.20;90.80
11304;DHT22;5707;49.588;12.148;2024-03-08T12:25:26;7.20;91.10
11304;DHT22;5707;49.588;12.148;2024-03-08T12:27:52;7.20;91.30
11304;DHT22;5707;49.588;12.148;2024-03-08T12:30:25;7.20;91.30
11304;DHT22;5707;49.588;12.148;2024-03-08T12:32:58;7.10;91.00
11304;DHT22;5707;49.588;12.148;2024-03-08T12:35:26;7.10;91.60
11304;DHT22;5707;49.588;12.148;2024-03-08T12:37:53;7.00;91.40
11304;DHT22;5707;49.588;12.148;2024-03-08T12:40:19;7.10;91.60
11304;DHT22;5707;49.588;12.148;2024-03-08T12:42:50;7.10;91.20
11304;DHT22;5707;49.588;12.148;2024-03-08T12:45:16;7.10;91.20
11304;DHT22;5707;49.588;12.148;2024-03-08T12:47:42;7.10;90.50
11304;DHT22;5707;49.588;12.148;2024-03-08T12:50:09;7.20;90.90
11304;DHT22;5707;49.588;12.148;2024-03-08T12:52:35;7.20;91.00
11304;DHT22;5707;49.588;12.148;2024-03-08T12:55:02;7.10;91.30
11304;DHT22;5707;49.588;12.148;2024-03-08T12:57:28;7.10;90.90
11304;DHT22;5707;49.588;12.148;2024-03-08T12:59:53;7.10;90.60
11304;DHT22;5707;49.588;12.148;2024-03-08T13:02:19;7.10;89.70
11304;DHT22;5707;49.588;12.148;2024-03-08T13:04:46;7.00;89.80
11304;DHT22;5707;49.588;12.148;2024-03-08T13:07:21;6.90;90.00
11304;DHT22;5707;49.588;12.148;2024-03-08T13:09:46;6.80;90.20
11304;DHT22;5707;49.588;12.148;2024-03-08T13:12:12;6.80;89.50
11304;DHT22;5707;49.588;12.148;2024-03-08T13:14:40;6.80;90.80
11304;DHT22;5707;49.588;12.148;2024-03-08T13:17:06;6.80;90.50
11304;DHT22;5707;49.588;12.148;2024-03-08T13:19:36;6.90;90.30
11304;DHT22;5707;49.588;12.148;2024-03-08T13:22:03;7.00;90.50
11304;DHT22;5707;49.588;12.148;2024-03-08T13:24:32;6.90;90.40
11304;DHT22;5707;49.588;12.148;2024-03-08T13:27:02;7.00;90.70
11304;DHT22;5707;49.588;12.148;2024-03-08T13:29:27;7.00;90.40
11304;DHT22;5707;49.588;12.148;2024-03-08T13:31:53;7.00;89.70
11304;DHT22;5707;49.588;12.148;2024-03-08T13:34:21;7.10;89.10
11304;DHT22;5707;49.588;12.148;2024-03-08T13:36:55;7.20;88.80
11304;DHT22;5707;49.588;12.148;2024-03-08T13:39:25;7.20;89.00
11304;DHT22;5707;49.588;12.148;2024-03-08T13:41:51;7.20;88.10
11304;DHT22;5707;49.588;12.148;2024-03-08T13:44:16;7.20;88.60
11304;DHT22;5707;49.588;12.148;2024-03-08T13:46:42;7.20;87.80
11304;DHT22;5707;49.588;12.148;2024-03-08T13:49:08;7.20;87.40
11304;DHT22;5707;49.588;12.148;2024-03-08T13:51:35;7.20;86.20
11304;DHT22;5707;49.588;12.148;2024-03-08T13:54:01;7.20;87.00
11304;DHT22;5707;49.588;12.148;2024-03-08T13:56:27;7.30;88.50
11304;DHT22;5707;49.588;12.148;2024-03-08T13:58:55;7.30;89.10
11304;DHT22;5707;49.588;12.148;2024-03-08T14:01:22;7.40;89.00
11304;DHT22;5707;49.588;12.148;2024-03-08T14:03:48;7.40;87.50
11304;DHT22;5707;49.588;12.148;2024-03-08T14:06:13;7.40;87.40
11304;DHT22;5707;49.588;12.148;2024-03-08T14:08:39;7.40;86.50
11304;DHT22;5707;49.588;12.148;2024-03-08T14:11:05;7.30;87.40
11304;DHT22;5707;49.588;12.148;2024-03-08T14:13:42;7.30;88.40
11304;DHT22;5707;49.588;12.148;2024-03-08T14:16:09;7.30;88.90
11304;DHT22;5707;49.588;12.148;2024-03-08T14:18:35;7.30;88.50
11304;DHT22;5707;49.588;12.148;2024-03-08T14:21:02;7.30;89.30
11304;DHT22;5707;49.588;12.148;2024-03-08T14:23:29;7.30;90.80
11304;DHT22;5707;49.588;12.148;2024-03-08T14:25:55;7.30;91.40
11304;DHT22;5707;49.588;12.148;2024-03-08T14:28:20;7.30;90.60
11304;DHT22;5707;49.588;12.148;2024-03-08T14:30:48;7.40;91.10
11304;DHT22;5707;49.588;12.148;2024-03-08T14:33:14;7.40;90.80
11304;DHT22;5707;49.588;12.148;2024-03-08T14:35:41;7.30;90.30
11304;DHT22;5707;49.588;12.148;2024-03-08T14:38:07;7.20;90.00
11304;DHT22;5707;49.588;12.148;2024-03-08T14:40:34;7.10;90.20
11304;DHT22;5707;49.588;12.148;2024-03-08T14:42:59;7.10;90.60
11304;DHT22;5707;49.588;12.148;2024-03-08T14:45:26;7.20;91.00
11304;DHT22;5707;49.588;12.148;2024-03-08T14:47:52;7.20;90.10
11304;DHT22;5707;49.588;12.148;2024-03-08T14:50:22;7.10;90.30
11304;DHT22;5707;49.588;12.148;2024-03-08T14:52:53;7.10;90.20
11304;DHT22;5707;49.588;12.148;2024-03-08T14:55:20;7.00;90.50
11304;DHT22;5707;49.588;12.148;2024-03-08T14:57:50;7.00;90.70
11304;DHT22;5707;49.588;12.148;2024-03-08T15:00:20;7.00;90.50
11304;DHT22;5707;49.588;12.148;2024-03-08T15:02:55;6.90;90.50
11304;DHT22;5707;49.588;12.148;2024-03-08T15:05:22;6.90;90.90
11304;DHT22;5707;49.588;12.148;2024-03-08T15:07:52;6.90;90.40
11304;DHT22;5707;49.588;12.148;2024-03-08T15:10:18;6.80;90.60
11304;DHT22;5707;49.588;12.148;2024-03-08T15:12:46;6.80;90.70
11304;DHT22;5707;49.588;12.148;2024-03-08T15:15:12;6.70;90.70
11304;DHT22;5707;49.588;12.148;2024-03-08T15:17:39;6.70;90.20
11304;DHT22;5707;49.588;12.148;2024-03-08T15:20:06;6.70;90.40
11304;DHT22;5707;49.588;12.148;2024-03-08T15:22:41;6.60;90.30
11304;DHT22;5707;49.588;12.148;2024-03-08T15:25:07;6.50;90.20
11304;DHT22;5707;49.588;12.148;2024-03-08T15:27:32;6.50;89.20
11304;DHT22;5707;49.588;12.148;2024-03-08T15:29:58;6.50;89.40
11304;DHT22;5707;49.588;12.148;2024-03-08T15:32:24;6.40;89.70
11304;DHT22;5707;49.588;12.148;2024-03-08T15:34:49;6.30;90.20
11304;DHT22;5707;49.588;12.148;2024-03-08T15:37:15;6.30;89.70
11304;DHT22;5707;49.588;12.148;2024-03-08T15:39:43;6.30;90.00
11304;DHT22;5707;49.588;12.148;2024-03-08T15:42:09;6.30;90.10
11304;DHT22;5707;49.588;12.148;2024-03-08T15:44:37;6.20;90.40